Time;durP1;ratioP1;P1;durP2;ratioP2;P2;SDS_P1;SDS_P2;PMS_P1;PMS_P2;Temp;Humidity;BMP_temperature;BMP_pressure;BME280_temperature;BME280_humidity;BME280_pressure;Samples;Min_cycle;Max_cycle;Signal;HPM_P1;HPM_P2
2022/03/27 00:00:25;;;;;;;28.80;14.77;;;5.50;93.40;;;;;;5056663;28;20037;-67
2022/03/27 00:02:51;;;;;;;24.13;13.85;;;5.50;93.40;;;;;;5056699;28;20404;-67
2022/03/27 00:05:17;;;;;;;30.77;18.33;;;5.50;93.70;;;;;;5059235;28;20036;-68
2022/03/27 00:07:42;;;;;;;37.03;19.70;;;5.50;93.80;;;;;;5062040;28;20043;-67
2022/03/27 00:10:09;;;;;;;28.63;16.42;;;5.50;93.90;;;;;;5059238;28;20056;-67
2022/03/27 00:12:34;;;;;;;25.85;13.45;;;5.50;93.90;;;;;;5056546;28;20012;-67
2022/03/27 00:15:01;;;;;;;19.23;10.98;;;5.50;94.10;;;;;;5056475;28;20062;-67
2022/03/27 00:17:29;;;;;;;18.80;11.27;;;5.50;94.30;;;;;;5059543;28;20040;-67
2022/03/27 00:19:57;;;;;;;18.48;11.07;;;5.50;94.50;;;;;;5060636;28;20141;-67
2022/03/27 00:22:23;;;;;;;16.10;10.48;;;5.50;94.60;;;;;;5054561;28;20036;-67
2022/03/27 00:24:48;;;;;;;19.63;10.95;;;5.50;94.60;;;;;;5056732;28;20044;-67
2022/03/27 00:27:14;;;;;;;18.83;11.73;;;5.60;94.70;;;;;;5057451;28;20036;-67
2022/03/27 00:29:40;;;;;;;18.20;11.75;;;5.60;94.70;;;;;;5060774;28;20033;-67
2022/03/27 00:32:06;;;;;;;21.13;12.25;;;5.60;94.80;;;;;;5058366;28;20523;-67
2022/03/27 00:34:32;;;;;;;19.45;12.55;;;5.60;94.80;;;;;;5060590;28;20048;-67
2022/03/27 00:36:58;;;;;;;16.92;11.82;;;5.70;95.10;;;;;;5057542;28;20221;-67
2022/03/27 00:39:24;;;;;;;21.13;11.95;;;5.60;94.90;;;;;;5061511;28;20037;-65
2022/03/27 00:41:51;;;;;;;18.92;12.00;;;5.60;94.60;;;;;;5061893;28;20040;-65
2022/03/27 00:44:18;;;;;;;19.27;12.07;;;5.60;94.60;;;;;;5052568;28;20048;-66
2022/03/27 00:46:43;;;;;;;16.45;10.38;;;5.50;94.70;;;;;;5056435;28;20095;-67
2022/03/27 00:49:09;;;;;;;18.60;11.65;;;5.50;94.10;;;;;;5057408;28;20029;-67
2022/03/27 00:51:35;;;;;;;16.38;11.32;;;5.50;93.80;;;;;;5060380;28;20102;-67
2022/03/27 00:54:02;;;;;;;16.40;10.80;;;5.40;93.80;;;;;;5055328;28;20072;-67
2022/03/27 00:56:28;;;;;;;18.63;11.50;;;5.30;93.90;;;;;;5055910;28;20522;-67
2022/03/27 00:58:54;;;;;;;19.10;10.95;;;5.30;93.90;;;;;;5052288;28;20103;-67
2022/03/27 01:01:25;;;;;;;18.40;11.13;;;5.20;93.90;;;;;;5059071;28;20131;-67
2022/03/27 01:03:54;;;;;;;18.00;9.80;;;5.10;93.60;;;;;;5056648;28;20115;-67
2022/03/27 01:06:29;;;;;;;17.65;10.93;;;5.10;93.40;;;;;;5053432;28;20119;-67
2022/03/27 01:11:39;;;;;;;15.07;10.43;;;5.00;93.70;;;;;;5058452;28;20029;-67
2022/03/27 01:14:05;;;;;;;17.15;9.15;;;5.00;93.60;;;;;;5060699;28;20033;-66
2022/03/27 01:16:43;;;;;;;15.13;9.35;;;4.90;93.10;;;;;;5054366;28;20028;-66
2022/03/27 01:19:11;;;;;;;16.50;9.73;;;4.90;92.90;;;;;;5054714;28;20025;-67
2022/03/27 01:21:45;;;;;;;17.02;9.55;;;4.80;93.00;;;;;;5058557;28;20117;-67
2022/03/27 01:24:12;;;;;;;15.15;8.02;;;4.70;93.00;;;;;;5058433;28;20036;-66
2022/03/27 01:26:39;;;;;;;14.27;7.90;;;4.60;92.70;;;;;;5057259;28;20119;-67
2022/03/27 01:29:06;;;;;;;15.82;9.50;;;4.60;92.40;;;;;;5052442;28;20059;-66
2022/03/27 01:31:33;;;;;;;17.50;10.63;;;4.50;92.50;;;;;;5058241;28;20078;-67
2022/03/27 01:33:59;;;;;;;17.05;10.20;;;4.50;93.10;;;;;;5059118;28;20041;-66
2022/03/27 01:36:28;;;;;;;17.08;8.40;;;4.50;93.50;;;;;;5057974;28;20469;-67
2022/03/27 01:38:56;;;;;;;17.02;9.75;;;4.50;93.00;;;;;;5053469;28;20098;-66
2022/03/27 01:41:23;;;;;;;15.35;9.82;;;4.50;93.00;;;;;;5056961;28;20102;-66
2022/03/27 01:43:50;;;;;;;18.02;10.93;;;4.40;93.20;;;;;;5058329;28;20801;-67
2022/03/27 01:46:16;;;;;;;16.02;9.75;;;4.40;93.90;;;;;;5056933;28;20029;-66
2022/03/27 01:48:42;;;;;;;17.50;9.77;;;4.40;93.60;;;;;;5040811;28;20067;-67
2022/03/27 01:51:08;;;;;;;16.08;9.77;;;4.40;93.60;;;;;;5056089;28;20118;-66
2022/03/27 01:53:38;;;;;;;14.50;9.63;;;4.40;93.60;;;;;;5057458;28;20039;-66
2022/03/27 01:56:06;;;;;;;18.73;10.23;;;4.40;93.50;;;;;;5057864;28;20032;-67
2022/03/27 01:58:32;;;;;;;14.73;9.60;;;4.30;93.80;;;;;;5057978;28;20081;-68
2022/03/27 02:00:57;;;;;;;15.52;8.68;;;4.30;93.70;;;;;;5053113;28;20802;-68
2022/03/27 02:03:27;;;;;;;19.30;10.75;;;4.30;93.40;;;;;;5056967;28;20154;-68
2022/03/27 02:05:54;;;;;;;15.98;10.27;;;4.30;93.40;;;;;;5056435;28;20036;-68
2022/03/27 02:08:21;;;;;;;13.23;9.23;;;4.20;93.50;;;;;;5060137;28;20158;-67
2022/03/27 02:10:48;;;;;;;18.63;10.93;;;4.20;93.80;;;;;;5050761;28;20101;-68
2022/03/27 02:13:14;;;;;;;18.60;11.20;;;4.20;93.60;;;;;;5041438;28;20028;-68
2022/03/27 02:15:41;;;;;;;14.07;9.60;;;4.20;93.50;;;;;;5057085;28;20036;-68
2022/03/27 02:18:09;;;;;;;17.90;9.98;;;4.10;93.60;;;;;;5059077;28;20037;-68
2022/03/27 02:20:35;;;;;;;16.90;10.57;;;4.10;93.80;;;;;;5057643;28;20056;-68
2022/03/27 02:23:01;;;;;;;18.05;11.32;;;4.10;93.90;;;;;;5052703;28;20037;-68
2022/03/27 02:25:26;;;;;;;16.25;10.30;;;4.00;93.80;;;;;;5057044;28;20036;-68
2022/03/27 02:27:52;;;;;;;16.48;10.05;;;4.00;93.80;;;;;;5058199;28;20040;-67
2022/03/27 02:30:19;;;;;;;17.92;10.32;;;4.00;93.90;;;;;;5060649;28;20035;-67
2022/03/27 02:32:46;;;;;;;18.08;9.73;;;3.90;94.00;;;;;;5053869;28;20036;-68
2022/03/27 02:35:13;;;;;;;16.30;9.70;;;3.90;93.80;;;;;;5056431;28;20029;-68
2022/03/27 02:37:38;;;;;;;15.82;9.88;;;3.90;93.70;;;;;;5061160;28;20036;-67
2022/03/27 02:40:05;;;;;;;16.48;10.35;;;3.90;93.70;;;;;;5061854;28;20025;-68
2022/03/27 02:42:31;;;;;;;18.48;9.60;;;3.80;93.80;;;;;;5060080;28;20036;-68
2022/03/27 02:44:57;;;;;;;21.15;11.00;;;3.80;93.90;;;;;;5057321;28;20047;-68
2022/03/27 02:47:23;;;;;;;14.27;9.82;;;3.80;93.90;;;;;;5056141;28;20032;-68
2022/03/27 02:49:48;;;;;;;14.40;10.27;;;3.70;93.80;;;;;;5056454;28;20036;-68
2022/03/27 02:52:14;;;;;;;16.17;9.40;;;3.70;94.00;;;;;;5056916;28;20029;-68
2022/03/27 02:54:40;;;;;;;15.00;9.52;;;3.70;93.90;;;;;;5054339;28;20112;-68
2022/03/27 02:57:06;;;;;;;13.68;8.55;;;3.70;93.70;;;;;;5043348;28;20032;-68
2022/03/27 02:59:31;;;;;;;17.35;9.25;;;3.70;93.30;;;;;;5056140;28;20415;-68
2022/03/27 03:01:57;;;;;;;16.77;9.98;;;3.70;93.20;;;;;;5056387;28;20095;-67
2022/03/27 03:04:23;;;;;;;16.90;10.65;;;3.60;93.50;;;;;;5054771;28;20521;-68
2022/03/27 03:06:49;;;;;;;13.48;8.95;;;3.60;93.60;;;;;;5057711;28;20075;-68
2022/03/27 03:09:15;;;;;;;14.15;8.32;;;3.60;93.30;;;;;;5045276;28;20036;-68
2022/03/27 03:11:41;;;;;;;13.95;9.40;;;3.60;93.20;;;;;;5058042;28;20103;-68
2022/03/27 03:14:07;;;;;;;14.82;9.45;;;3.60;93.30;;;;;;5063559;28;20024;-68
2022/03/27 03:16:33;;;;;;;17.10;9.65;;;3.60;93.30;;;;;;5052320;28;20066;-68
2022/03/27 03:18:59;;;;;;;15.68;10.18;;;3.60;93.30;;;;;;5058691;28;20123;-68
2022/03/27 03:21:26;;;;;;;18.33;9.95;;;3.50;93.50;;;;;;5061214;28;20033;-68
2022/03/27 03:23:52;;;;;;;13.82;8.23;;;3.50;93.30;;;;;;5051533;28;20563;-67
2022/03/27 03:26:18;;;;;;;12.20;8.60;;;3.50;93.10;;;;;;5058536;28;20033;-67
2022/03/27 03:28:43;;;;;;;9.70;7.13;;;3.50;92.90;;;;;;5060308;28;20115;-68
2022/03/27 03:31:09;;;;;;;12.43;7.63;;;3.50;92.60;;;;;;5062970;28;20021;-68
2022/03/27 03:33:35;;;;;;;12.85;8.90;;;3.50;92.30;;;;;;5064006;28;20574;-68
2022/03/27 03:36:00;;;;;;;14.63;8.68;;;3.50;92.20;;;;;;5058947;28;20124;-68
2022/03/27 03:38:26;;;;;;;18.30;8.60;;;3.40;92.10;;;;;;5056433;28;20043;-67
2022/03/27 03:40:52;;;;;;;15.48;7.80;;;3.50;92.10;;;;;;5059260;28;20040;-68
2022/03/27 03:43:20;;;;;;;12.95;8.10;;;3.40;92.10;;;;;;5058458;28;20040;-68
2022/03/27 03:45:46;;;;;;;14.77;8.35;;;3.40;92.30;;;;;;5054963;28;20052;-68
2022/03/27 03:48:12;;;;;;;16.08;10.23;;;3.40;92.60;;;;;;5063443;28;20031;-68
2022/03/27 03:50:38;;;;;;;22.48;12.10;;;3.40;92.70;;;;;;5059161;28;20043;-67
2022/03/27 03:53:04;;;;;;;18.13;10.57;;;3.30;92.90;;;;;;5058948;28;20029;-68
2022/03/27 03:55:31;;;;;;;17.80;10.85;;;3.30;93.20;;;;;;5061666;28;20032;-67
2022/03/27 03:57:57;;;;;;;15.23;10.02;;;3.40;93.60;;;;;;5054290;28;20047;-67
2022/03/27 04:00:23;;;;;;;13.38;9.75;;;3.50;94.20;;;;;;5052327;28;20036;-67
2022/03/27 04:02:49;;;;;;;20.40;10.95;;;3.50;94.20;;;;;;5057888;28;20115;-67
2022/03/27 04:05:15;;;;;;;21.73;11.57;;;3.60;94.00;;;;;;5058892;28;20031;-67
2022/03/27 04:07:41;;;;;;;18.45;11.20;;;3.60;93.80;;;;;;5058353;28;20033;-67
2022/03/27 04:10:07;;;;;;;13.95;9.77;;;3.50;93.80;;;;;;5052167;28;20140;-67
2022/03/27 04:12:33;;;;;;;14.38;9.57;;;3.50;93.90;;;;;;5062583;28;20086;-65
2022/03/27 04:14:59;;;;;;;14.57;9.68;;;3.50;94.40;;;;;;5042256;28;20032;-67
2022/03/27 04:17:24;;;;;;;12.32;8.82;;;3.60;94.70;;;;;;5058490;28;20044;-67
2022/03/27 04:19:50;;;;;;;12.95;8.73;;;3.60;94.70;;;;;;5058413;28;20021;-67
2022/03/27 04:22:16;;;;;;;11.65;8.38;;;3.60;94.70;;;;;;5053057;28;20076;-67
2022/03/27 04:24:42;;;;;;;11.27;8.13;;;3.70;94.80;;;;;;5056658;28;20028;-67
2022/03/27 04:27:08;;;;;;;17.08;9.38;;;3.70;94.70;;;;;;5059250;28;20052;-67
2022/03/27 04:29:34;;;;;;;13.55;9.45;;;3.80;94.60;;;;;;5060185;28;20028;-67
2022/03/27 04:32:00;;;;;;;15.88;10.68;;;3.90;94.60;;;;;;5055612;28;20056;-67
2022/03/27 04:34:25;;;;;;;15.13;10.32;;;3.90;94.60;;;;;;5061612;28;20103;-67
2022/03/27 04:36:53;;;;;;;17.60;11.98;;;3.90;94.80;;;;;;5055288;28;20381;-67
2022/03/27 04:39:19;;;;;;;20.60;11.57;;;3.90;94.80;;;;;;5056976;28;20036;-67
2022/03/27 04:41:46;;;;;;;16.75;10.60;;;3.90;94.50;;;;;;5060533;28;20032;-67
2022/03/27 04:44:13;;;;;;;17.95;11.73;;;3.90;94.40;;;;;;5056967;28;20064;-67
2022/03/27 04:46:38;;;;;;;19.83;11.65;;;3.80;94.40;;;;;;5058419;28;20043;-67
2022/03/27 04:49:05;;;;;;;18.35;11.35;;;3.80;94.70;;;;;;5061067;28;20028;-67
2022/03/27 04:51:31;;;;;;;18.17;11.27;;;3.80;94.70;;;;;;5057533;28;20032;-67
2022/03/27 04:53:57;;;;;;;18.30;10.73;;;3.80;94.60;;;;;;5054573;28;20054;-67
2022/03/27 04:56:23;;;;;;;18.25;10.98;;;3.80;94.20;;;;;;5058741;28;20740;-67
2022/03/27 04:58:48;;;;;;;19.95;12.07;;;3.80;94.00;;;;;;5059536;28;20170;-68
2022/03/27 05:01:14;;;;;;;17.75;11.15;;;3.80;94.00;;;;;;5058082;28;20524;-67
2022/03/27 05:03:40;;;;;;;19.05;10.93;;;3.80;94.10;;;;;;5055182;28;20028;-67
2022/03/27 05:06:06;;;;;;;20.15;10.98;;;3.80;94.20;;;;;;5061295;28;20036;-69
2022/03/27 05:08:35;;;;;;;15.32;10.27;;;3.80;94.30;;;;;;5056232;28;20060;-67
2022/03/27 05:11:01;;;;;;;19.60;11.43;;;3.90;94.50;;;;;;5051935;28;20025;-67
2022/03/27 05:13:27;;;;;;;19.15;11.00;;;4.00;94.40;;;;;;5061855;28;20760;-67
2022/03/27 05:15:53;;;;;;;21.52;11.82;;;4.00;94.10;;;;;;5052380;28;20069;-67
2022/03/27 05:18:19;;;;;;;21.38;11.77;;;4.10;94.00;;;;;;5051664;28;20419;-67
2022/03/27 05:20:45;;;;;;;22.60;11.75;;;4.20;93.40;;;;;;5058292;28;20021;-67
2022/03/27 05:23:11;;;;;;;21.50;11.82;;;4.20;93.10;;;;;;5061150;28;20441;-67
2022/03/27 05:25:45;;;;;;;23.80;12.02;;;4.20;93.00;;;;;;5057650;28;20021;-67
2022/03/27 05:28:14;;;;;;;22.73;12.98;;;4.30;92.70;;;;;;5055738;28;20034;-67
2022/03/27 05:30:40;;;;;;;21.60;11.38;;;4.20;92.10;;;;;;5057856;28;20397;-67
2022/03/27 05:33:06;;;;;;;18.52;10.70;;;4.20;92.30;;;;;;5057570;28;20369;-67
2022/03/27 05:35:32;;;;;;;23.30;11.93;;;4.20;92.60;;;;;;5054991;28;20116;-68
2022/03/27 05:37:58;;;;;;;23.73;12.63;;;4.30;92.90;;;;;;5040572;28;20662;-67
2022/03/27 05:40:25;;;;;;;23.38;13.05;;;4.40;92.90;;;;;;5059158;28;20043;-66
2022/03/27 05:42:52;;;;;;;21.15;11.95;;;4.50;92.80;;;;;;5056478;28;20544;-67
2022/03/27 05:45:18;;;;;;;18.52;10.25;;;4.60;92.80;;;;;;5055859;28;20036;-67
2022/03/27 05:47:44;;;;;;;18.88;11.55;;;4.80;92.80;;;;;;5053535;28;20037;-67
2022/03/27 05:50:16;;;;;;;20.45;11.73;;;4.90;92.70;;;;;;5056533;28;20662;-67
2022/03/27 05:52:42;;;;;;;23.98;11.95;;;5.10;92.30;;;;;;5056971;28;20038;-67
2022/03/27 05:55:09;;;;;;;19.17;12.07;;;5.30;91.90;;;;;;5052940;28;20029;-67
2022/03/27 05:57:34;;;;;;;17.10;9.95;;;5.40;91.70;;;;;;5055760;28;20139;-67
2022/03/27 06:00:02;;;;;;;17.02;10.13;;;5.50;91.40;;;;;;5056465;28;20111;-67
2022/03/27 06:02:27;;;;;;;15.90;10.05;;;5.70;91.10;;;;;;5061387;28;20093;-67
2022/03/27 06:04:53;;;;;;;15.38;10.32;;;5.80;90.70;;;;;;5056214;28;20045;-67
2022/03/27 06:07:19;;;;;;;11.65;8.38;;;6.00;90.20;;;;;;5052666;28;20033;-67
2022/03/27 06:09:44;;;;;;;12.25;8.27;;;6.20;89.30;;;;;;5052055;28;20033;-67
2022/03/27 06:12:12;;;;;;;20.05;10.77;;;6.30;89.20;;;;;;5053050;28;20028;-67
2022/03/27 06:14:37;;;;;;;17.25;10.30;;;6.50;89.00;;;;;;5056234;28;20484;-67
2022/03/27 06:17:03;;;;;;;17.77;10.27;;;6.70;87.90;;;;;;5058165;28;20036;-67
2022/03/27 06:19:30;;;;;;;16.73;10.00;;;6.90;86.50;;;;;;5034150;28;20029;-67
2022/03/27 06:21:59;;;;;;;15.10;10.13;;;7.10;85.60;;;;;;5055675;28;20036;-67
2022/03/27 06:24:26;;;;;;;14.15;9.30;;;7.30;85.40;;;;;;5061387;28;20032;-67
2022/03/27 06:26:52;;;;;;;18.23;9.68;;;7.50;85.40;;;;;;5056389;28;20051;-66
2022/03/27 06:29:20;;;;;;;14.60;9.32;;;7.80;84.10;;;;;;5042878;28;20041;-65
2022/03/27 06:31:46;;;;;;;12.68;8.85;;;8.10;83.10;;;;;;5057904;28;20033;-65
2022/03/27 06:34:12;;;;;;;11.52;7.50;;;8.40;81.80;;;;;;5060787;28;20036;-65
2022/03/27 06:36:38;;;;;;;13.30;7.80;;;8.60;81.20;;;;;;5055414;28;20032;-65
2022/03/27 06:39:05;;;;;;;13.50;8.20;;;8.80;81.00;;;;;;5050834;28;20033;-65
2022/03/27 06:41:30;;;;;;;12.20;8.82;;;9.00;80.40;;;;;;5060414;28;20033;-65
2022/03/27 06:43:56;;;;;;;12.05;7.97;;;9.20;79.80;;;;;;5063497;28;20381;-64
2022/03/27 06:46:22;;;;;;;12.23;7.97;;;9.30;79.20;;;;;;5064225;28;20044;-65
2022/03/27 06:48:52;;;;;;;12.13;8.02;;;9.40;79.20;;;;;;5062649;28;20037;-65
2022/03/27 06:51:19;;;;;;;13.38;8.63;;;9.60;79.00;;;;;;5058369;28;20054;-66
2022/03/27 06:53:45;;;;;;;11.73;8.35;;;9.70;79.30;;;;;;5040489;28;20025;-66
2022/03/27 06:56:11;;;;;;;11.80;7.90;;;9.70;79.20;;;;;;5058959;28;20043;-66
2022/03/27 06:58:37;;;;;;;13.73;8.38;;;9.70;80.20;;;;;;5058352;28;20560;-66
2022/03/27 07:03:47;;;;;;;9.15;7.10;;;12.30;73.90;;;;;;5057938;28;20044;-66
2022/03/27 07:06:17;;;;;;;8.60;6.95;;;14.30;65.30;;;;;;5058412;28;20035;-66
2022/03/27 07:08:42;;;;;;;11.25;7.35;;;16.80;56.70;;;;;;5059136;28;20043;-66
2022/03/27 07:11:08;;;;;;;8.15;7.25;;;18.40;50.90;;;;;;5057268;28;20036;-66
2022/03/27 07:13:34;;;;;;;7.72;6.35;;;19.00;48.70;;;;;;5058526;28;20032;-66
2022/03/27 07:15:59;;;;;;;8.45;6.85;;;19.30;47.90;;;;;;5062817;28;20034;-66
2022/03/27 07:18:25;;;;;;;8.52;7.10;;;19.60;46.70;;;;;;5059028;28;20033;-66
2022/03/27 07:20:51;;;;;;;9.13;7.68;;;19.00;47.60;;;;;;5058414;28;20033;-66
2022/03/27 07:23:19;;;;;;;9.45;8.02;;;18.10;49.20;;;;;;5059072;28;20032;-65
2022/03/27 07:25:47;;;;;;;8.80;7.47;;;17.10;52.00;;;;;;5059039;28;20140;-65
2022/03/27 07:28:14;;;;;;;8.45;6.80;;;16.60;53.90;;;;;;5063633;28;20021;-65
2022/03/27 07:30:41;;;;;;;8.90;7.65;;;16.60;54.60;;;;;;5059659;28;20036;-65
2022/03/27 07:33:08;;;;;;;8.85;7.25;;;18.10;51.80;;;;;;5056362;28;20106;-63
2022/03/27 07:35:34;;;;;;;7.78;6.80;;;20.40;46.60;;;;;;5042845;28;20032;-65
2022/03/27 07:38:01;;;;;;;6.75;6.05;;;21.00;45.10;;;;;;5058971;28;20056;-66
2022/03/27 07:40:28;;;;;;;7.53;6.78;;;20.70;44.90;;;;;;5052849;28;20711;-66
2022/03/27 07:42:54;;;;;;;7.32;6.57;;;19.70;47.00;;;;;;5056459;28;20032;-66
2022/03/27 07:45:23;;;;;;;7.38;6.60;;;19.10;48.90;;;;;;5061502;28;20044;-66
2022/03/27 07:47:51;;;;;;;7.20;6.25;;;19.80;47.60;;;;;;5056016;28;20075;-66
2022/03/27 07:50:18;;;;;;;7.75;6.15;;;22.10;44.00;;;;;;5058048;28;20682;-66
2022/03/27 07:52:44;;;;;;;8.50;6.97;;;24.80;39.30;;;;;;5056905;28;20036;-67
2022/03/27 07:55:13;;;;;;;6.93;6.22;;;27.40;35.50;;;;;;5050385;28;20032;-68
2022/03/27 07:57:39;;;;;;;7.30;6.30;;;29.50;32.50;;;;;;5058588;28;20090;-67
2022/03/27 08:00:08;;;;;;;7.90;6.57;;;30.50;30.80;;;;;;5062607;28;20064;-66
2022/03/27 08:02:39;;;;;;;7.85;6.57;;;30.10;29.90;;;;;;5061003;28;20253;-67
2022/03/27 08:05:06;;;;;;;6.60;5.90;;;29.80;30.70;;;;;;5057154;28;20028;-67
2022/03/27 08:07:32;;;;;;;8.75;7.78;;;29.90;30.70;;;;;;5059996;28;20040;-67
2022/03/27 08:09:59;;;;;;;8.82;7.25;;;30.10;30.40;;;;;;5054259;28;20452;-67
2022/03/27 08:12:25;;;;;;;8.82;7.38;;;29.20;31.20;;;;;;5058070;28;20110;-65
2022/03/27 08:14:51;;;;;;;10.88;9.32;;;28.50;32.30;;;;;;5061239;28;20071;-67
2022/03/27 08:17:17;;;;;;;11.80;9.70;;;28.20;33.60;;;;;;5062524;28;20052;-67
2022/03/27 08:19:44;;;;;;;11.02;9.25;;;28.70;32.10;;;;;;5058522;28;20029;-66
2022/03/27 08:22:10;;;;;;;12.60;9.85;;;28.50;32.10;;;;;;5056777;28;20086;-67
2022/03/27 08:24:36;;;;;;;12.02;9.52;;;27.60;32.90;;;;;;5056613;28;20036;-67
2022/03/27 08:27:04;;;;;;;13.07;9.30;;;26.80;34.70;;;;;;5059823;28;20028;-67
2022/03/27 08:29:31;;;;;;;11.80;9.07;;;25.30;36.60;;;;;;5059339;28;20044;-67
2022/03/27 08:32:01;;;;;;;12.93;10.60;;;24.20;38.90;;;;;;5053363;28;20441;-67
2022/03/27 08:34:29;;;;;;;12.25;10.25;;;23.90;39.20;;;;;;5054124;28;20031;-65
2022/03/27 08:36:55;;;;;;;13.73;11.18;;;23.80;39.60;;;;;;5057274;28;20370;-66
2022/03/27 08:39:21;;;;;;;15.55;11.20;;;23.10;41.40;;;;;;5058544;28;20060;-66
2022/03/27 08:41:49;;;;;;;12.98;10.02;;;24.00;39.70;;;;;;5053507;28;20039;-66
2022/03/27 08:44:18;;;;;;;12.45;10.02;;;24.40;39.60;;;;;;5054468;28;20048;-66
2022/03/27 08:46:45;;;;;;;10.45;8.73;;;23.10;41.80;;;;;;5056435;28;20123;-66
2022/03/27 08:49:34;;;;;;;14.98;9.80;;;21.70;44.30;;;;;;5054974;28;20119;-66
2022/03/27 08:52:08;;;;;;;13.63;9.40;;;22.40;42.60;;;;;;5059665;28;20058;-66
2022/03/27 08:55:01;;;;;;;12.10;8.38;;;23.90;40.60;;;;;;5057923;28;20025;-65
2022/03/27 08:57:52;;;;;;;9.13;8.23;;;24.20;39.10;;;;;;5056488;28;20029;-67
2022/03/27 09:00:23;;;;;;;10.35;7.15;;;25.30;38.00;;;;;;5055029;28;20452;-66
2022/03/27 09:02:50;;;;;;;8.63;6.32;;;27.10;35.70;;;;;;5054558;28;20139;-66
2022/03/27 09:05:17;;;;;;;10.10;7.10;;;28.70;31.60;;;;;;5056212;28;20144;-67
2022/03/27 09:07:43;;;;;;;9.68;7.20;;;29.30;30.90;;;;;;5052561;28;20044;-65
2022/03/27 09:10:11;;;;;;;6.95;6.20;;;29.80;29.60;;;;;;5059323;28;20127;-67
2022/03/27 09:12:37;;;;;;;9.13;7.10;;;31.10;29.80;;;;;;5058457;28;20035;-67
2022/03/27 09:15:07;;;;;;;8.30;7.35;;;32.00;28.30;;;;;;5053384;28;20036;-66
2022/03/27 09:17:33;;;;;;;6.88;6.07;;;30.80;28.70;;;;;;5054206;28;20112;-67
2022/03/27 09:19:59;;;;;;;6.22;5.47;;;29.80;29.80;;;;;;5056948;28;20217;-68
2022/03/27 09:22:31;;;;;;;7.93;6.38;;;29.30;30.20;;;;;;5061476;28;20660;-68
2022/03/27 09:25:04;;;;;;;7.63;6.22;;;29.80;29.40;;;;;;5056179;28;20064;-67
2022/03/27 09:27:33;;;;;;;8.65;6.35;;;28.50;31.90;;;;;;5036872;28;20150;-67
2022/03/27 09:30:08;;;;;;;7.95;7.05;;;27.70;31.90;;;;;;5052638;28;20036;-68
2022/03/27 09:32:39;;;;;;;8.40;5.45;;;27.40;32.30;;;;;;5057960;28;20060;-67
2022/03/27 09:35:14;;;;;;;8.95;6.10;;;27.10;33.80;;;;;;5054923;28;20029;-67
2022/03/27 09:37:43;;;;;;;8.07;6.27;;;27.20;33.00;;;;;;5059177;28;20056;-67
2022/03/27 09:40:12;;;;;;;8.13;6.32;;;25.20;34.80;;;;;;5055832;28;20086;-67
2022/03/27 09:42:40;;;;;;;8.02;6.10;;;23.40;38.00;;;;;;5055550;28;20976;-67
2022/03/27 09:45:16;;;;;;;7.43;6.10;;;22.40;40.20;;;;;;5061177;28;20032;-67
2022/03/27 09:47:55;;;;;;;7.03;5.60;;;24.00;38.20;;;;;;5054718;28;20041;-67
2022/03/27 09:50:36;;;;;;;12.02;6.65;;;24.80;36.70;;;;;;5041699;28;20105;-67
2022/03/27 09:53:25;;;;;;;7.10;6.38;;;24.40;36.80;;;;;;5058953;28;20040;-67
2022/03/27 09:56:00;;;;;;;5.63;5.07;;;24.90;36.60;;;;;;5057096;28;20024;-68
2022/03/27 09:58:37;;;;;;;6.35;4.82;;;27.10;33.90;;;;;;5053883;28;20082;-68
2022/03/27 10:01:13;;;;;;;7.60;5.22;;;30.60;30.30;;;;;;5051390;28;20082;-68
2022/03/27 10:03:59;;;;;;;6.80;5.57;;;30.00;29.70;;;;;;5051917;28;20047;-68
2022/03/27 10:06:38;;;;;;;6.78;5.35;;;28.10;31.00;;;;;;5058426;28;20107;-67
2022/03/27 10:09:06;;;;;;;4.32;3.80;;;28.10;32.10;;;;;;5056442;28;20876;-67
2022/03/27 10:11:34;;;;;;;6.68;4.50;;;29.70;30.60;;;;;;5051961;28;20458;-74
2022/03/27 10:14:00;;;;;;;9.63;5.72;;;32.50;27.80;;;;;;5056037;28;20035;-74
2022/03/27 10:16:32;;;;;;;4.45;3.67;;;36.00;25.80;;;;;;5030137;28;20047;-75
2022/03/27 10:19:03;;;;;;;7.47;4.75;;;39.00;23.50;;;;;;5045337;28;20064;-74
2022/03/27 10:21:30;;;;;;;4.10;3.25;;;40.00;23.10;;;;;;5061556;28;20144;-75
2022/03/27 10:24:09;;;;;;;5.68;3.72;;;39.50;23.50;;;;;;5057332;28;20499;-75
2022/03/27 10:26:36;;;;;;;5.50;4.07;;;39.30;23.40;;;;;;5059210;28;20821;-75
2022/03/27 10:29:02;;;;;;;7.03;4.18;;;39.30;23.30;;;;;;5040626;28;20115;-74
2022/03/27 10:31:28;;;;;;;4.22;3.60;;;39.60;22.80;;;;;;5045274;28;20263;-75
2022/03/27 10:33:55;;;;;;;3.60;2.88;;;38.90;23.20;;;;;;5057546;28;20786;-75
2022/03/27 10:36:52;;;;;;;4.65;4.15;;;37.10;23.90;;;;;;5046405;28;20033;-75
2022/03/27 10:39:28;;;;;;;3.97;2.95;;;36.90;23.70;;;;;;5052716;28;20044;-67
2022/03/27 10:42:09;;;;;;;2.95;2.45;;;38.20;23.60;;;;;;5051994;28;20118;-66
2022/03/27 10:44:56;;;;;;;4.63;2.70;;;39.50;22.70;;;;;;5051624;28;20040;-69
2022/03/27 10:47:28;;;;;;;3.60;2.90;;;38.20;22.50;;;;;;5048543;28;20040;-68
2022/03/27 10:50:00;;;;;;;4.55;3.58;;;37.10;23.00;;;;;;5059321;28;20043;-69
2022/03/27 10:52:27;;;;;;;4.75;3.22;;;35.50;24.60;;;;;;5052648;28;20025;-64
2022/03/27 10:55:11;;;;;;;7.00;4.40;;;33.60;26.20;;;;;;5056635;28;20049;-68
2022/03/27 10:57:49;;;;;;;5.35;3.40;;;35.40;24.90;;;;;;5058305;28;20034;-67
2022/03/27 11:00:35;;;;;;;4.15;2.88;;;38.60;23.30;;;;;;5057957;28;20164;-67
2022/03/27 11:03:01;;;;;;;4.78;2.65;;;39.80;22.70;;;;;;5054078;28;20040;-67
2022/03/27 11:05:35;;;;;;;4.75;4.05;;;39.90;22.40;;;;;;5059397;28;20139;-67
2022/03/27 11:08:18;;;;;;;3.45;3.15;;;39.20;22.70;;;;;;5058993;28;20477;-67
2022/03/27 11:10:59;;;;;;;4.35;3.38;;;38.20;23.10;;;;;;5041746;28;20033;-67
2022/03/27 11:13:30;;;;;;;2.88;2.58;;;37.60;23.60;;;;;;5052176;28;20036;-68
2022/03/27 11:16:15;;;;;;;4.65;3.58;;;36.10;24.20;;;;;;5051390;28;20032;-67
2022/03/27 11:18:46;;;;;;;4.63;3.45;;;31.90;26.00;;;;;;5055871;28;20032;-67
2022/03/27 11:21:13;;;;;;;4.57;3.65;;;28.30;29.30;;;;;;5052270;28;20173;-67
2022/03/27 11:23:42;;;;;;;5.18;3.67;;;25.70;32.60;;;;;;5052190;28;20025;-67
2022/03/27 11:26:20;;;;;;;5.35;3.75;;;23.70;36.00;;;;;;5054175;28;20048;-66
2022/03/27 11:28:51;;;;;;;4.60;3.85;;;22.50;38.20;;;;;;5056371;28;20033;-70
2022/03/27 11:31:22;;;;;;;4.40;3.72;;;21.90;40.10;;;;;;5063552;28;20037;-66
2022/03/27 11:34:08;;;;;;;6.28;4.22;;;21.30;40.00;;;;;;5057111;28;20392;-67
2022/03/27 11:36:36;;;;;;;4.55;3.65;;;20.90;41.80;;;;;;5063060;28;20048;-67
2022/03/27 11:39:07;;;;;;;5.63;3.83;;;20.60;42.20;;;;;;5059292;28;20037;-68
2022/03/27 11:41:46;;;;;;;4.68;3.58;;;20.40;42.30;;;;;;5059388;28;20506;-66
2022/03/27 11:45:06;;;;;;;6.40;3.80;;;19.80;42.80;;;;;;5058965;28;20029;-66
2022/03/27 11:47:07;;;;;;;7.55;4.32;;;19.60;43.60;;;;;;5054478;28;20036;-66
2022/03/27 11:49:41;;;;;;;5.10;4.05;;;19.20;44.40;;;;;;5057689;28;20365;-66
2022/03/27 11:52:14;;;;;;;7.75;4.30;;;18.90;45.30;;;;;;5057261;28;20032;-67
2022/03/27 11:54:41;;;;;;;6.88;4.25;;;18.70;44.80;;;;;;5059139;28;20041;-67
2022/03/27 11:57:08;;;;;;;5.03;4.00;;;18.60;46.20;;;;;;5051896;28;20021;-67
2022/03/27 11:59:49;;;;;;;4.72;3.83;;;18.70;46.60;;;;;;5063510;28;20044;-67
2022/03/27 12:02:16;;;;;;;5.45;3.47;;;18.70;45.60;;;;;;5063463;28;20028;-67
2022/03/27 12:04:59;;;;;;;6.40;4.30;;;18.60;45.20;;;;;;5055669;28;20033;-67
2022/03/27 12:07:46;;;;;;;6.82;3.75;;;18.60;46.00;;;;;;5061169;28;20024;-65
2022/03/27 12:10:11;;;;;;;5.43;3.38;;;18.60;46.20;;;;;;5056214;28;20422;-66
2022/03/27 12:12:37;;;;;;;6.43;3.80;;;18.60;46.00;;;;;;5063957;28;20139;-69
2022/03/27 12:15:08;;;;;;;5.05;3.90;;;18.70;45.80;;;;;;5054535;28;20104;-66
2022/03/27 12:17:44;;;;;;;6.25;3.88;;;18.90;46.10;;;;;;5056346;28;20415;-66
2022/03/27 12:20:11;;;;;;;7.93;4.18;;;18.70;45.90;;;;;;5055501;28;20033;-65
2022/03/27 12:22:43;;;;;;;4.78;3.67;;;18.60;45.60;;;;;;5052175;28;20044;-67
2022/03/27 12:25:19;;;;;;;7.30;3.60;;;18.50;45.40;;;;;;5057354;28;20036;-67
2022/03/27 12:30:43;;;;;;;4.43;3.05;;;18.40;46.30;;;;;;5055670;28;20041;-67
2022/03/27 12:33:10;;;;;;;4.75;3.40;;;18.50;44.60;;;;;;5057026;28;20556;-66
2022/03/27 12:35:36;;;;;;;4.35;3.05;;;18.30;45.20;;;;;;5056101;28;20500;-66
2022/03/27 12:38:02;;;;;;;5.25;3.45;;;18.10;46.50;;;;;;5055144;28;20039;-66
2022/03/27 12:40:28;;;;;;;4.40;2.92;;;18.10;45.80;;;;;;5060386;28;20161;-66
2022/03/27 12:43:11;;;;;;;5.63;3.42;;;18.20;45.80;;;;;;5055117;28;20111;-65
2022/03/27 12:45:40;;;;;;;4.03;3.20;;;18.00;45.70;;;;;;5057811;28;20040;-65
2022/03/27 12:48:08;;;;;;;4.85;3.20;;;18.00;45.90;;;;;;5061052;28;20634;-67
2022/03/27 12:50:36;;;;;;;4.18;2.65;;;18.10;45.50;;;;;;5058583;28;20129;-66
2022/03/27 12:53:12;;;;;;;6.60;3.05;;;18.20;45.30;;;;;;5058390;28;20043;-67
2022/03/27 12:55:43;;;;;;;5.18;4.18;;;18.20;43.90;;;;;;5054236;28;20081;-67
2022/03/27 12:58:11;;;;;;;6.30;3.70;;;18.10;45.40;;;;;;5055965;28;20069;-67